createdAt,value
2018-03-01T00:02:16.281Z,100006.41
2018-03-01T00:04:43.955Z,99993.54
2018-03-01T00:07:11.755Z,99983.51
2018-03-01T00:09:39.595Z,99989.98
2018-03-01T00:12:07.442Z,99972.33
2018-03-01T00:14:35.308Z,99979.75
2018-03-01T00:17:03.179Z,99966.70
2018-03-01T00:19:30.937Z,99984.89
2018-03-01T00:21:58.704Z,99985.70
2018-03-01T00:24:26.357Z,99995.73
2018-03-01T00:26:54.229Z,100008.67
2018-03-01T00:29:21.969Z,100006.83
2018-03-01T00:31:49.709Z,100013.28
2018-03-01T00:34:17.530Z,100014.90
2018-03-01T00:36:45.389Z,100007.59
2018-03-01T00:39:13.152Z,100025.32
2018-03-01T00:41:40.830Z,100024.84
2018-03-01T00:44:08.637Z,100030.67
2018-03-01T00:46:36.444Z,100041.56
2018-03-01T00:49:04.315Z,100048.44
2018-03-01T00:51:32.075Z,100022.97
2018-03-01T00:53:59.951Z,100008.18
2018-03-01T00:56:27.603Z,100001.20
2018-03-01T00:58:55.470Z,99998.71
2018-03-01T01:01:23.235Z,99997.79
2018-03-01T01:03:51.063Z,99997.72
2018-03-01T01:06:18.868Z,100006.99
2018-03-01T01:08:46.731Z,99998.36
2018-03-01T01:11:14.700Z,100011.33
2018-03-01T01:13:42.536Z,100000.84
2018-03-01T01:16:10.170Z,99987.58
2018-03-01T01:18:37.841Z,99974.16
2018-03-01T01:21:05.452Z,99965.44
2018-03-01T01:23:33.108Z,99976.36
2018-03-01T01:26:00.724Z,99953.55
2018-03-01T01:28:28.388Z,99951.68
2018-03-01T01:30:56.008Z,99963.47
2018-03-01T01:33:23.670Z,99944.01
2018-03-01T01:35:51.350Z,99949.31
2018-03-01T01:38:19.042Z,99947.84
2018-03-01T01:40:46.716Z,99944.23
2018-03-01T01:43:14.376Z,99928.37
2018-03-01T01:45:42.000Z,99938.73
2018-03-01T01:48:09.710Z,99933.55
2018-03-01T01:50:49.293Z,99924.12
2018-03-01T01:53:16.961Z,99921.61
2018-03-01T01:55:44.586Z,99916.39
2018-03-01T01:58:12.248Z,99913.86
2018-03-01T02:00:39.889Z,99889.70
2018-03-01T02:03:07.569Z,99900.90
2018-03-01T02:05:35.188Z,99886.98
2018-03-01T02:08:02.855Z,99881.30
2018-03-01T02:10:30.498Z,99882.78
2018-03-01T02:12:58.171Z,99880.23
2018-03-01T02:15:25.787Z,99871.99
2018-03-01T02:17:53.462Z,99878.42
2018-03-01T02:20:21.086Z,99880.20
2018-03-01T02:22:48.747Z,99877.61
2018-03-01T02:25:16.360Z,99875.27
2018-03-01T02:27:44.057Z,99883.46
2018-03-01T02:30:17.535Z,99875.73
2018-03-01T02:32:45.257Z,99877.43
2018-03-01T02:35:12.872Z,99865.53
2018-03-01T02:37:40.549Z,99861.90
2018-03-01T02:40:08.181Z,99851.06
2018-03-01T02:42:35.853Z,99846.77
2018-03-01T02:45:03.668Z,99831.70
2018-03-01T02:47:31.423Z,99847.47
2018-03-01T02:49:59.290Z,99852.91
2018-03-01T02:52:27.156Z,99848.05
2018-03-01T02:54:54.963Z,99829.97
2018-03-01T02:57:22.624Z,99826.13
2018-03-01T02:59:50.450Z,99816.83
2018-03-01T03:02:20.976Z,99806.66
2018-03-01T03:04:48.700Z,99805.81
2018-03-01T03:07:16.472Z,99811.64
2018-03-01T03:09:44.270Z,99816.41
2018-03-01T03:12:12.040Z,99816.39
2018-03-01T03:14:39.813Z,99815.56
2018-03-01T03:17:07.503Z,99809.90
2018-03-01T03:19:35.325Z,99808.66
2018-03-01T03:22:02.980Z,99801.75
2018-03-01T03:24:30.853Z,99799.24
2018-03-01T03:26:58.565Z,99795.69
2018-03-01T03:29:26.381Z,99806.42
2018-03-01T03:31:54.145Z,99801.65
2018-03-01T03:34:22.012Z,99778.95
2018-03-01T03:36:49.884Z,99782.41
2018-03-01T03:39:17.694Z,99781.05
2018-03-01T03:41:45.401Z,99777.85
2018-03-01T03:44:13.166Z,99785.11
2018-03-01T03:46:40.934Z,99775.89
2018-03-01T03:49:08.810Z,99769.88
2018-03-01T03:51:36.561Z,99787.84
2018-03-01T03:54:04.221Z,99770.57
2018-03-01T03:56:31.866Z,99762.38
2018-03-01T03:58:59.525Z,99748.19
2018-03-01T04:01:27.136Z,99751.29
2018-03-01T04:03:54.853Z,99751.73
2018-03-01T04:06:22.466Z,99747.39
2018-03-01T04:08:50.195Z,99742.89
2018-03-01T04:11:17.968Z,99730.91
2018-03-01T04:13:45.827Z,99726.45
2018-03-01T04:16:13.479Z,99734.25
2018-03-01T04:18:41.254Z,99727.30
2018-03-01T04:21:08.926Z,99721.00
2018-03-01T04:23:36.780Z,99725.22
2018-03-01T04:26:04.545Z,99707.11
2018-03-01T04:28:32.416Z,99715.93
2018-03-01T04:31:00.122Z,99703.08
2018-03-01T04:33:27.938Z,99714.34
2018-03-01T04:35:55.703Z,99711.22
2018-03-01T04:38:23.468Z,99702.55
2018-03-01T04:40:51.232Z,99702.55
2018-03-01T04:43:19.099Z,99709.00
2018-03-01T04:45:46.819Z,99703.66
2018-03-01T04:48:14.728Z,99704.24
2018-03-01T04:50:42.447Z,99703.58
2018-03-01T04:53:10.257Z,99705.10
2018-03-01T04:55:37.978Z,99705.25
2018-03-01T04:58:05.917Z,99704.53
2018-03-01T05:00:33.783Z,99704.59
2018-03-01T05:03:01.409Z,99711.30
2018-03-01T05:05:29.281Z,99707.27
2018-03-01T05:07:57.013Z,99712.41
2018-03-01T05:10:24.747Z,99717.20
2018-03-01T05:12:52.471Z,99714.75
2018-03-01T05:15:20.213Z,99713.44
2018-03-01T05:17:47.947Z,99704.67
2018-03-01T05:20:15.764Z,99700.59
2018-03-01T05:22:43.433Z,99694.94
2018-03-01T05:25:11.241Z,99698.12
2018-03-01T05:27:39.055Z,99704.21
2018-03-01T05:30:06.772Z,99693.67
2018-03-01T05:32:34.481Z,99691.32
2018-03-01T05:35:02.347Z,99699.55
2018-03-01T05:37:30.113Z,99686.56
2018-03-01T05:39:57.985Z,99706.38
2018-03-01T05:42:25.741Z,99698.98
2018-03-01T05:44:53.506Z,99692.30
2018-03-01T05:47:21.269Z,99698.48
2018-03-01T05:49:49.155Z,99702.55
2018-03-01T05:52:16.889Z,99690.44
2018-03-01T05:54:44.704Z,99701.30
2018-03-01T05:57:12.448Z,99709.52
2018-03-01T05:59:40.192Z,99694.38
2018-03-01T06:02:07.905Z,99692.27
2018-03-01T06:04:35.915Z,99697.55
2018-03-01T06:07:03.690Z,99713.23
2018-03-01T06:09:31.595Z,99694.10
2018-03-01T06:11:59.423Z,99693.50
2018-03-01T06:14:27.253Z,99696.70
2018-03-01T06:16:55.054Z,99697.11
2018-03-01T06:19:22.785Z,99694.94
2018-03-01T06:21:50.583Z,99694.98
2018-03-01T06:24:18.295Z,99692.73
2018-03-01T06:26:46.061Z,99698.27
2018-03-01T06:29:13.677Z,99693.73
2018-03-01T06:31:41.388Z,99695.81
2018-03-01T06:34:09.008Z,99686.52
2018-03-01T06:36:36.725Z,99677.70
2018-03-01T06:39:04.420Z,99683.42
2018-03-01T06:41:32.088Z,99675.23
2018-03-01T06:44:00.174Z,99686.44
2018-03-01T06:46:28.030Z,99683.20
2018-03-01T06:48:55.723Z,99671.97
2018-03-01T06:51:23.444Z,99664.78
2018-03-01T06:53:51.453Z,99667.45
2018-03-01T06:56:19.172Z,99668.75
2018-03-01T06:58:47.595Z,99671.36
2018-03-01T07:01:15.528Z,99674.78
2018-03-01T07:03:43.146Z,99672.25
2018-03-01T07:06:10.817Z,99671.19
2018-03-01T07:08:38.452Z,99666.38
2018-03-01T07:11:06.129Z,99667.67
2018-03-01T07:13:33.764Z,99660.07
2018-03-01T07:16:01.441Z,99659.44
2018-03-01T07:18:29.138Z,99655.80
2018-03-01T07:20:56.771Z,99655.00
2018-03-01T07:23:24.442Z,99663.86
2018-03-01T07:25:52.052Z,99655.77
2018-03-01T07:28:19.724Z,99639.11
2018-03-01T07:30:47.620Z,99644.02
2018-03-01T07:33:15.390Z,99636.84
2018-03-01T07:35:43.020Z,99634.17
2018-03-01T07:38:11.597Z,99633.97
2018-03-01T07:40:40.265Z,99621.44
2018-03-01T07:43:08.796Z,99630.74
2018-03-01T07:45:37.774Z,99618.48
2018-03-01T07:48:07.324Z,99614.50
2018-03-01T07:50:34.998Z,99613.02
2018-03-01T07:53:03.049Z,99627.07
2018-03-01T07:55:30.698Z,99617.56
2018-03-01T07:57:58.398Z,99610.42
2018-03-01T08:00:26.039Z,99603.60
2018-03-01T08:02:53.704Z,99610.84
2018-03-01T08:05:21.432Z,99595.81
2018-03-01T08:07:49.252Z,99594.34
2018-03-01T08:10:16.917Z,99591.87
2018-03-01T08:12:44.614Z,99604.49
2018-03-01T08:15:12.297Z,99611.66
2018-03-01T08:17:40.003Z,99592.30
2018-03-01T08:20:08.414Z,99596.37
2018-03-01T08:22:36.068Z,99576.52
2018-03-01T08:25:03.761Z,99587.93
2018-03-01T08:27:31.448Z,99596.58
2018-03-01T08:30:01.049Z,99588.80
2018-03-01T08:32:28.663Z,99585.59
2018-03-01T08:34:56.399Z,99602.63
2018-03-01T08:37:24.034Z,99593.66
2018-03-01T08:39:51.700Z,99591.63
2018-03-01T08:42:19.344Z,99588.91
2018-03-01T08:44:47.000Z,99587.48
2018-03-01T08:47:14.612Z,99584.66
2018-03-01T08:49:42.279Z,99572.64
2018-03-01T08:52:09.992Z,99581.50
2018-03-01T08:54:37.757Z,99577.74
2018-03-01T08:57:05.403Z,99592.06
2018-03-01T08:59:33.014Z,99576.88
2018-03-01T09:02:00.678Z,99575.32
2018-03-01T09:04:28.340Z,99582.88
2018-03-01T09:06:56.020Z,99579.13
2018-03-01T09:09:23.638Z,99564.03
2018-03-01T09:11:51.299Z,99552.08
2018-03-01T09:14:18.933Z,99568.21
2018-03-01T09:16:46.616Z,99565.19
2018-03-01T09:19:14.256Z,99554.30
2018-03-01T09:21:41.923Z,99543.72
2018-03-01T09:24:09.561Z,99546.61
2018-03-01T09:26:37.237Z,99542.83
2018-03-01T09:29:04.866Z,99535.89
2018-03-01T09:31:32.530Z,99542.14
2018-03-01T09:34:00.184Z,99540.73
2018-03-01T09:36:28.040Z,99540.20
2018-03-01T09:38:55.808Z,99541.25
2018-03-01T09:41:23.672Z,99535.28
2018-03-01T09:43:52.286Z,99520.51
2018-03-01T09:46:20.230Z,99508.94
2018-03-01T09:48:47.972Z,99516.39
2018-03-01T09:51:15.858Z,99521.78
2018-03-01T09:53:43.635Z,99516.98
2018-03-01T09:56:12.056Z,99520.81
2018-03-01T09:58:39.683Z,99503.39
2018-03-01T10:01:07.377Z,99500.05
2018-03-01T10:03:34.997Z,99502.27
2018-03-01T10:06:02.678Z,99505.21
2018-03-01T10:08:30.321Z,99497.90
2018-03-01T10:10:58.017Z,99496.84
2018-03-01T10:13:25.645Z,99496.55
2018-03-01T10:15:53.323Z,99486.09
2018-03-01T10:18:21.106Z,99489.92
2018-03-01T10:20:48.764Z,99502.39
2018-03-01T10:23:16.402Z,99479.70
2018-03-01T10:25:44.074Z,99479.77
2018-03-01T10:28:11.724Z,99480.83
2018-03-01T10:30:39.409Z,99472.58
2018-03-01T10:33:07.047Z,99472.53
2018-03-01T10:35:34.715Z,99461.58
2018-03-01T10:38:02.350Z,99461.41
2018-03-01T10:40:30.089Z,99455.22
2018-03-01T10:42:57.777Z,99456.25
2018-03-01T10:45:25.441Z,99468.41
2018-03-01T10:47:53.080Z,99469.64
2018-03-01T10:50:20.737Z,99455.95
2018-03-01T10:52:48.371Z,99457.55
2018-03-01T10:55:16.042Z,99470.71
2018-03-01T10:57:43.677Z,99452.95
2018-03-01T11:00:11.496Z,99460.59
2018-03-01T11:02:39.100Z,99457.96
2018-03-01T11:05:06.806Z,99452.33
2018-03-01T11:07:34.480Z,99440.12
2018-03-01T11:10:02.160Z,99432.48
2018-03-01T11:12:29.846Z,99431.69
2018-03-01T11:14:57.488Z,99417.31
2018-03-01T11:17:25.168Z,99407.08
2018-03-01T11:19:52.852Z,99406.30
2018-03-01T11:22:20.568Z,99397.64
2018-03-01T11:24:48.315Z,99389.24
2018-03-01T11:27:15.976Z,99380.33
2018-03-01T11:29:43.604Z,99383.45
2018-03-01T11:32:11.269Z,99371.36
2018-03-01T11:34:38.938Z,99376.95
2018-03-01T11:37:06.612Z,99360.33
2018-03-01T11:39:34.270Z,99334.67
2018-03-01T11:42:01.989Z,99340.45
2018-03-01T11:44:29.609Z,99340.80
2018-03-01T11:46:57.266Z,99332.04
2018-03-01T11:49:24.876Z,99337.78
2018-03-01T11:51:52.543Z,99330.09
2018-03-01T11:54:20.157Z,99321.45
2018-03-01T11:56:47.824Z,99329.53
2018-03-01T11:59:15.465Z,99323.45
2018-03-01T12:01:43.152Z,99305.03
2018-03-01T12:04:10.786Z,99304.70
2018-03-01T12:06:38.451Z,99311.27
2018-03-01T12:09:06.600Z,99304.84
2018-03-01T12:11:34.263Z,99303.30
2018-03-01T12:14:01.885Z,99285.14
2018-03-01T12:16:29.567Z,99297.03
2018-03-01T12:18:57.199Z,99290.13
2018-03-01T12:21:24.864Z,99294.75
2018-03-01T12:23:52.541Z,99287.78
2018-03-01T12:26:20.244Z,99303.06
2018-03-01T12:28:47.893Z,99279.03
2018-03-01T12:31:15.556Z,99274.63
2018-03-01T12:33:43.184Z,99284.03
2018-03-01T12:36:10.852Z,99285.41
2018-03-01T12:38:38.478Z,99262.70
2018-03-01T12:41:06.203Z,99274.39
2018-03-01T12:43:33.833Z,99248.81
2018-03-01T12:46:01.496Z,99249.28
2018-03-01T12:48:29.116Z,99258.31
2018-03-01T12:50:56.838Z,99239.84
2018-03-01T12:53:24.517Z,99238.58
2018-03-01T12:55:52.400Z,99233.45
2018-03-01T12:58:20.053Z,99223.45
2018-03-01T13:00:47.873Z,99226.27
2018-03-01T13:03:15.527Z,99223.90
2018-03-01T13:05:43.244Z,99215.60
2018-03-01T13:08:10.904Z,99210.64
2018-03-01T13:10:38.640Z,99222.95
2018-03-01T13:13:06.442Z,99206.81
2018-03-01T13:15:34.258Z,99205.52
2018-03-01T13:18:02.066Z,99215.27
2018-03-01T13:20:29.768Z,99210.75
2018-03-01T13:22:57.635Z,99209.23
2018-03-01T13:25:25.292Z,99211.96
2018-03-01T13:27:53.013Z,99211.16
2018-03-01T13:30:23.032Z,99218.52
2018-03-01T13:33:06.470Z,99200.23
2018-03-01T13:38:29.631Z,99231.82
2018-03-01T13:40:58.031Z,99198.41
2018-03-01T13:43:29.587Z,99200.66
2018-03-01T13:45:59.476Z,99194.73
2018-03-01T13:48:34.433Z,99196.62
2018-03-01T13:51:04.073Z,99180.73
2018-03-01T13:53:34.073Z,99171.50
2018-03-01T13:56:02.399Z,99180.58
2018-03-01T13:58:32.214Z,99159.39
2018-03-01T14:01:01.341Z,99154.81
2018-03-01T14:03:30.713Z,99163.37
2018-03-01T14:06:11.757Z,99170.80
2018-03-01T14:08:40.300Z,99169.78
2018-03-01T14:11:10.888Z,99169.22
2018-03-01T14:13:39.414Z,99188.99
2018-03-01T14:16:08.419Z,99168.42
2018-03-01T14:18:40.325Z,99167.67
2018-03-01T14:21:09.367Z,99153.89
2018-03-01T14:23:38.412Z,99144.36
2018-03-01T14:26:17.290Z,99147.58
2018-03-01T14:29:00.380Z,99141.17
2018-03-01T14:31:29.662Z,99137.86
2018-03-01T14:33:59.290Z,99145.15
2018-03-01T14:36:40.431Z,99137.08
2018-03-01T14:39:09.576Z,99136.08
2018-03-01T14:41:38.073Z,99130.89
2018-03-01T14:44:07.035Z,99123.40
2018-03-01T14:46:50.070Z,99122.67
2018-03-01T14:49:18.446Z,99113.83
2018-03-01T14:51:47.744Z,99115.41
2018-03-01T14:54:16.589Z,99117.72
2018-03-01T14:56:46.204Z,99114.06
2018-03-01T14:59:14.629Z,99106.47
2018-03-01T15:01:43.118Z,99099.28
2018-03-01T15:04:11.555Z,99102.97
2018-03-01T15:06:39.766Z,99099.02
2018-03-01T15:09:08.272Z,99091.54
2018-03-01T15:11:36.632Z,99097.27
2018-03-01T15:14:11.587Z,99076.81
2018-03-01T15:16:41.560Z,99079.89
2018-03-01T15:19:10.834Z,99076.22
2018-03-01T15:21:39.649Z,99076.97
2018-03-01T15:24:08.335Z,99072.61
2018-03-01T15:26:47.748Z,99058.23
2018-03-01T15:29:30.255Z,99061.55
2018-03-01T15:31:58.688Z,99068.61
2018-03-01T15:34:27.286Z,99064.07
2018-03-01T15:36:57.533Z,99057.35
2018-03-01T15:39:26.530Z,99059.43
2018-03-01T15:42:04.470Z,99066.95
2018-03-01T15:44:33.185Z,99048.65
2018-03-01T15:47:01.855Z,99053.73
2018-03-01T15:49:32.937Z,99052.42
2018-03-01T15:52:23.804Z,99048.00
2018-03-01T15:54:54.307Z,99044.45
2018-03-01T15:57:25.888Z,99050.73
2018-03-01T15:59:58.758Z,99056.14
2018-03-01T16:02:27.987Z,99047.03
2018-03-01T16:04:58.956Z,99044.77
2018-03-01T16:07:27.662Z,99054.69
2018-03-01T16:09:55.822Z,99043.34
2018-03-01T16:12:24.305Z,99045.75
2018-03-01T16:14:56.305Z,99050.09
2018-03-01T16:17:24.637Z,99061.38
2018-03-01T16:19:53.411Z,99044.66
2018-03-01T16:22:22.259Z,99051.94
2018-03-01T16:24:50.953Z,99055.97
2018-03-01T16:27:22.042Z,99066.45
2018-03-01T16:29:50.438Z,99067.48
2018-03-01T16:32:20.233Z,99057.95
2018-03-01T16:34:50.691Z,99055.17
2018-03-01T16:37:19.774Z,99059.28
2018-03-01T16:39:48.646Z,99059.52
2018-03-01T16:42:19.489Z,99055.02
2018-03-01T16:44:49.333Z,99062.03
2018-03-01T16:47:20.534Z,99058.73
2018-03-01T16:49:51.048Z,99060.98
2018-03-01T16:52:20.207Z,99064.66
2018-03-01T16:54:49.327Z,99064.94
2018-03-01T16:57:18.924Z,99058.81
2018-03-01T16:59:48.655Z,99054.28
2018-03-01T17:02:20.277Z,99055.54
2018-03-01T17:04:56.849Z,99043.56
2018-03-01T17:07:26.745Z,99048.23
2018-03-01T17:09:57.199Z,99049.45
2018-03-01T17:12:25.912Z,99050.77
2018-03-01T17:14:54.273Z,99062.77
2018-03-01T17:17:22.867Z,99054.53
2018-03-01T17:19:51.094Z,99050.88
2018-03-01T17:22:19.430Z,99054.33
2018-03-01T17:24:47.619Z,99057.92
2018-03-01T17:27:15.879Z,99062.04
2018-03-01T17:29:43.901Z,99076.58
2018-03-01T17:32:12.236Z,99071.66
2018-03-01T17:34:41.144Z,99074.95
2018-03-01T17:37:09.584Z,99065.22
2018-03-01T17:39:37.955Z,99056.45
2018-03-01T17:42:06.243Z,99060.97
2018-03-01T17:44:34.568Z,99048.05
2018-03-01T17:47:02.815Z,99057.03
2018-03-01T17:49:30.960Z,99060.72
2018-03-01T17:51:59.036Z,99052.69
2018-03-01T17:54:28.074Z,99046.81
2018-03-01T17:56:56.284Z,99045.14
2018-03-01T17:59:28.328Z,99036.76
2018-03-01T18:01:56.401Z,99040.32
2018-03-01T18:04:25.677Z,99044.52
2018-03-01T18:06:53.919Z,99034.98
2018-03-01T18:09:22.101Z,99034.88
2018-03-01T18:11:50.183Z,99040.40
2018-03-01T18:14:18.272Z,99049.86
2018-03-01T18:16:46.420Z,99048.52
2018-03-01T18:19:14.649Z,99037.75
2018-03-01T18:21:42.933Z,99028.34
2018-03-01T18:24:11.174Z,99026.41
2018-03-01T18:26:39.256Z,99037.98
2018-03-01T18:29:07.209Z,99021.59
2018-03-01T18:31:35.288Z,99017.87
2018-03-01T18:34:03.341Z,99029.23
2018-03-01T18:36:31.453Z,99029.84
2018-03-01T18:38:59.420Z,99006.22
2018-03-01T18:41:27.520Z,99015.02
2018-03-01T18:43:55.583Z,99013.76
2018-03-01T18:46:23.906Z,99013.66
2018-03-01T18:48:52.026Z,99033.98
2018-03-01T18:51:19.967Z,99015.98
2018-03-01T18:53:47.903Z,99014.44
2018-03-01T18:56:15.760Z,99009.88
2018-03-01T18:58:43.825Z,99011.77
2018-03-01T19:01:11.921Z,99031.72
2018-03-01T19:03:40.111Z,99028.89
2018-03-01T19:06:08.192Z,99019.67
2018-03-01T19:08:36.158Z,99023.23
2018-03-01T19:11:04.489Z,99035.64
2018-03-01T19:13:32.556Z,99036.33
2018-03-01T19:16:00.635Z,99039.00
2018-03-01T19:18:28.647Z,99031.23
2018-03-01T19:20:56.798Z,99024.79
2018-03-01T19:23:24.758Z,99026.64
2018-03-01T19:25:52.721Z,99026.33
2018-03-01T19:28:20.804Z,99024.98
2018-03-01T19:30:49.005Z,99015.13
2018-03-01T19:33:17.082Z,99011.67
2018-03-01T19:35:45.251Z,98995.29
2018-03-01T19:38:13.485Z,98997.91
2018-03-01T19:40:41.569Z,98994.83
2018-03-01T19:43:09.693Z,98996.09
2018-03-01T19:45:37.738Z,98995.46
2018-03-01T19:48:05.936Z,98999.27
2018-03-01T19:50:34.135Z,98995.98
2018-03-01T19:53:02.343Z,98992.16
2018-03-01T19:55:30.416Z,98989.59
2018-03-01T19:57:58.593Z,98995.55
2018-03-01T20:00:26.580Z,98999.23
2018-03-01T20:02:54.658Z,98983.16
2018-03-01T20:05:22.750Z,98987.65
2018-03-01T20:07:50.699Z,98988.48
2018-03-01T20:10:18.664Z,98985.60
2018-03-01T20:12:46.960Z,98986.91
2018-03-01T20:15:15.189Z,98980.80
2018-03-01T20:17:43.392Z,98975.52
2018-03-01T20:20:11.596Z,98982.35
2018-03-01T20:22:39.681Z,98972.53
2018-03-01T20:25:07.757Z,98964.52
2018-03-01T20:27:35.837Z,98972.27
2018-03-01T20:30:03.920Z,98978.09
2018-03-01T20:32:31.999Z,98976.47
2018-03-01T20:35:00.164Z,98970.52
2018-03-01T20:37:28.279Z,98986.57
2018-03-01T20:39:56.443Z,98972.96
2018-03-01T20:42:24.564Z,98977.47
2018-03-01T20:44:52.675Z,98957.17
2018-03-01T20:47:20.968Z,98948.70
2018-03-01T20:52:42.805Z,98956.13
2018-03-01T20:55:10.896Z,98968.64
2018-03-01T20:57:38.972Z,98972.55
2018-03-01T21:00:06.930Z,98975.28
2018-03-01T21:02:34.893Z,98975.67
2018-03-01T21:05:02.848Z,98970.07
2018-03-01T21:07:30.816Z,98969.58
2018-03-01T21:09:58.857Z,98974.19
2018-03-01T21:12:26.980Z,98970.00
2018-03-01T21:14:54.816Z,98967.75
2018-03-01T21:17:22.656Z,98971.95
2018-03-01T21:19:50.803Z,98975.51
2018-03-01T21:22:18.942Z,98965.91
2018-03-01T21:24:47.019Z,98957.74
2018-03-01T21:27:15.101Z,98964.80
2018-03-01T21:29:43.193Z,98955.03
2018-03-01T21:32:11.025Z,98946.42
2018-03-01T21:34:39.011Z,98944.94
2018-03-01T21:37:06.831Z,98945.72
2018-03-01T21:39:34.799Z,98943.69
2018-03-01T21:42:02.751Z,98939.52
2018-03-01T21:44:30.955Z,98949.20
2018-03-01T21:47:07.686Z,98941.52
2018-03-01T21:49:35.761Z,98944.45
2018-03-01T21:52:03.838Z,98952.58
2018-03-01T21:54:31.923Z,98941.36
2018-03-01T21:56:59.887Z,98937.92
2018-03-01T21:59:28.086Z,98931.89
2018-03-01T22:01:56.133Z,98932.62
2018-03-01T22:04:24.121Z,98925.20
2018-03-01T22:06:52.207Z,98926.39
2018-03-01T22:09:20.169Z,98922.38
2018-03-01T22:11:48.254Z,98915.16
2018-03-01T22:14:16.211Z,98906.39
2018-03-01T22:16:44.176Z,98915.08
2018-03-01T22:19:12.740Z,98920.44
2018-03-01T22:21:40.808Z,98908.70
2018-03-01T22:24:08.891Z,98926.26
2018-03-01T22:26:37.073Z,98920.44
2018-03-01T22:29:05.299Z,98921.98
2018-03-01T22:31:33.252Z,98913.57
2018-03-01T22:34:01.217Z,98924.53
2018-03-01T22:36:29.177Z,98917.91
2018-03-01T22:38:57.140Z,98910.92
2018-03-01T22:41:25.222Z,98901.08
2018-03-01T22:43:53.180Z,98907.10
2018-03-01T22:46:21.264Z,98911.25
2018-03-01T22:48:49.225Z,98905.63
2018-03-01T22:51:17.562Z,98898.39
2018-03-01T22:53:45.593Z,98905.94
2018-03-01T22:56:13.709Z,98906.30
2018-03-01T22:58:41.794Z,98917.23
2018-03-01T23:01:09.762Z,98915.22
2018-03-01T23:03:37.954Z,98904.45
2018-03-01T23:06:05.932Z,98899.27
2018-03-01T23:08:33.874Z,98910.27
2018-03-01T23:11:01.831Z,98907.93
2018-03-01T23:13:29.799Z,98899.42
2018-03-01T23:15:57.877Z,98909.13
2018-03-01T23:18:25.716Z,98880.16
2018-03-01T23:20:53.801Z,98894.33
2018-03-01T23:23:21.760Z,98885.19
2018-03-01T23:25:49.842Z,98877.48
2018-03-01T23:28:17.970Z,98881.50
2018-03-01T23:30:45.892Z,98872.88
2018-03-01T23:33:13.725Z,98876.39
2018-03-01T23:35:41.687Z,98882.18
2018-03-01T23:38:09.715Z,98878.44
2018-03-01T23:40:37.731Z,98883.95
2018-03-01T23:43:05.703Z,98863.42
2018-03-01T23:45:33.800Z,98857.09
2018-03-01T23:48:01.743Z,98876.98
2018-03-01T23:50:29.696Z,98858.07
2018-03-01T23:52:57.535Z,98844.80
2018-03-01T23:55:25.505Z,98849.63
2018-03-01T23:57:53.836Z,98863.70
